Time;durP1;ratioP1;P1;durP2;ratioP2;P2;SDS_P1;SDS_P2;PMS_P1;PMS_P2;Temp;Humidity;BMP_temperature;BMP_pressure;BME280_temperature;BME280_humidity;BME280_pressure;Samples;Min_cycle;Max_cycle;Signal;HPM_P1;HPM_P2
2021/12/07 00:00:32;;;;;;;6.50;5.80;;;1.00;98.50;;;;;;6152854;28;20474;-65
2021/12/07 00:03:37;;;;;;;14.67;7.57;;;0.90;98.60;;;;;;6152705;28;21029;-65
2021/12/07 00:06:41;;;;;;;9.17;7.30;;;0.90;98.50;;;;;;6148965;28;20502;-65
2021/12/07 00:09:49;;;;;;;7.27;6.50;;;0.80;98.50;;;;;;6142834;28;20466;-65
2021/12/07 00:12:52;;;;;;;8.83;7.30;;;0.80;98.50;;;;;;6147937;28;20478;-65
2021/12/07 00:15:56;;;;;;;14.60;7.23;;;0.80;98.60;;;;;;6135169;28;20467;-65
2021/12/07 00:19:01;;;;;;;7.10;6.40;;;0.80;98.70;;;;;;6142795;28;20946;-65
2021/12/07 00:22:07;;;;;;;6.73;5.70;;;0.80;98.80;;;;;;6137655;28;20848;-66
2021/12/07 00:25:16;;;;;;;8.00;5.90;;;0.80;98.90;;;;;;6135625;28;20484;-65
2021/12/07 00:28:21;;;;;;;7.73;6.93;;;0.70;98.80;;;;;;6139513;28;20478;-65
2021/12/07 00:31:28;;;;;;;7.03;6.20;;;0.70;98.80;;;;;;6132740;28;20476;-66
2021/12/07 00:34:45;;;;;;;7.73;6.00;;;0.70;98.90;;;;;;6128948;28;20820;-66
2021/12/07 00:37:50;;;;;;;7.47;5.40;;;0.70;99.20;;;;;;6128055;28;20472;-64
2021/12/07 00:40:56;;;;;;;9.43;7.10;;;0.70;99.20;;;;;;6133277;28;20485;-64
2021/12/07 00:43:59;;;;;;;8.60;6.43;;;0.70;99.40;;;;;;6134709;28;20483;-64
2021/12/07 00:47:02;;;;;;;14.10;8.27;;;0.60;99.20;;;;;;6129650;28;20544;-63
2021/12/07 00:50:09;;;;;;;10.70;8.50;;;0.60;99.40;;;;;;6135294;28;20525;-63
2021/12/07 00:53:13;;;;;;;9.90;8.27;;;0.60;99.40;;;;;;6148820;28;20479;-65
2021/12/07 00:56:16;;;;;;;6.17;5.67;;;0.60;99.30;;;;;;6127958;28;20795;-63
2021/12/07 00:59:19;;;;;;;6.43;5.80;;;0.60;99.10;;;;;;6265185;28;20443;-63
2021/12/07 01:02:22;;;;;;;8.23;5.43;;;0.50;99.00;;;;;;6260775;28;21021;-65
2021/12/07 01:05:32;;;;;;;9.20;6.40;;;0.50;99.00;;;;;;6255065;28;20439;-63
2021/12/07 01:25:37;;;;;;;6.43;5.47;;;0.30;98.80;;;;;;6276938;28;20482;-64
2021/12/07 01:28:44;;;;;;;6.07;5.47;;;0.30;98.80;;;;;;6267933;28;20458;-64
2021/12/07 01:31:54;;;;;;;8.47;5.73;;;0.30;98.70;;;;;;6277426;28;20470;-65
2021/12/07 01:38:33;;;;;;;6.03;5.17;;;0.30;98.70;;;;;;6245816;28;20463;-64
2021/12/07 02:01:51;;;;;;;4.40;3.90;;;0.10;98.90;;;;;;6271784;28;20477;-65
2021/12/07 02:04:57;;;;;;;4.83;4.40;;;0.20;98.90;;;;;;6271595;28;20585;-65
2021/12/07 02:08:00;;;;;;;5.10;4.23;;;0.20;98.90;;;;;;6270888;28;20528;-65
2021/12/07 02:11:04;;;;;;;11.00;6.40;;;0.20;99.00;;;;;;6248545;28;20482;-66
2021/12/07 02:14:17;;;;;;;6.07;5.57;;;0.10;98.90;;;;;;6246398;28;20482;-66
2021/12/07 02:17:24;;;;;;;5.73;5.17;;;0.10;98.90;;;;;;6246434;28;20498;-65
2021/12/07 02:20:31;;;;;;;7.90;6.10;;;0.10;99.00;;;;;;6246862;28;20442;-66
2021/12/07 02:23:36;;;;;;;5.67;5.27;;;0.10;99.00;;;;;;6246253;28;20815;-65
2021/12/07 02:26:39;;;;;;;4.93;4.27;;;0.10;98.90;;;;;;6246238;28;20467;-65
2021/12/07 02:29:42;;;;;;;4.80;3.53;;;0.00;98.80;;;;;;6242138;28;20475;-65
2021/12/07 02:32:46;;;;;;;5.00;3.90;;;0.00;98.80;;;;;;6246228;28;20474;-65
2021/12/07 02:35:49;;;;;;;5.50;5.00;;;0.00;98.70;;;;;;6246173;28;20501;-65
2021/12/07 02:38:54;;;;;;;3.90;3.60;;;0.00;98.80;;;;;;6246887;28;20471;-66
2021/12/07 02:41:57;;;;;;;5.00;4.20;;;0.00;98.70;;;;;;6246706;28;20467;-66
2021/12/07 02:45:01;;;;;;;4.30;3.43;;;-0.10;98.80;;;;;;6246018;28;20482;-64
2021/12/07 02:48:05;;;;;;;4.63;4.07;;;-0.10;98.90;;;;;;6245167;28;20486;-65
2021/12/07 02:51:08;;;;;;;4.40;3.97;;;-0.10;99.30;;;;;;6245516;28;20467;-65
2021/12/07 02:54:13;;;;;;;4.73;4.10;;;-0.10;99.40;;;;;;6245607;28;20815;-65
2021/12/07 02:57:19;;;;;;;4.10;3.70;;;-0.10;99.40;;;;;;6243641;28;20467;-65
2021/12/07 03:00:26;;;;;;;6.83;4.07;;;-0.10;99.10;;;;;;6229687;28;20475;-65
2021/12/07 03:03:34;;;;;;;5.40;3.70;;;-0.20;99.40;;;;;;6231183;28;20480;-65
2021/12/07 03:06:49;;;;;;;4.93;4.50;;;-0.10;99.20;;;;;;6230766;28;20839;-64
2021/12/07 03:25:50;;;;;;;4.43;4.00;;;-0.20;99.10;;;;;;6230065;28;20476;-64
2021/12/07 03:27:05;;;;;;;4.93;3.60;;;-0.20;99.60;;;;;;6204639;28;20473;-64
2021/12/07 03:30:09;;;;;;;5.50;5.00;;;-0.20;99.60;;;;;;6203759;28;20477;-65
2021/12/07 03:33:13;;;;;;;4.83;4.00;;;-0.30;99.50;;;;;;6204064;28;20475;-65
2021/12/07 03:36:16;;;;;;;6.03;4.80;;;-0.30;99.60;;;;;;6204054;28;20487;-64
2021/12/07 03:39:19;;;;;;;4.80;4.40;;;-0.30;99.60;;;;;;6204076;28;20476;-65
2021/12/07 03:42:24;;;;;;;7.47;6.70;;;-0.30;99.50;;;;;;6203447;28;20813;-66
2021/12/07 03:45:28;;;;;;;6.43;5.93;;;-0.30;99.40;;;;;;6203573;28;20479;-66
2021/12/07 03:48:31;;;;;;;7.27;6.60;;;-0.40;99.30;;;;;;6203755;28;20480;-65
2021/12/07 03:51:34;;;;;;;6.87;5.50;;;-0.40;99.40;;;;;;6207306;28;20978;-65
2021/12/07 03:54:38;;;;;;;4.63;4.30;;;-0.40;99.60;;;;;;6227797;28;20481;-66
2021/12/07 03:57:42;;;;;;;5.40;4.60;;;-0.40;99.50;;;;;;6227499;28;20476;-65
2021/12/07 04:00:47;;;;;;;4.03;3.73;;;-0.30;99.50;;;;;;6228192;28;20472;-65
2021/12/07 04:03:52;;;;;;;5.10;3.63;;;-0.30;99.50;;;;;;6227370;28;20468;-65
2021/12/07 04:06:55;;;;;;;6.30;4.53;;;-0.40;99.40;;;;;;6227137;28;20965;-66
2021/12/07 04:09:58;;;;;;;4.20;3.80;;;-0.40;99.40;;;;;;6226828;28;20483;-65
2021/12/07 04:13:03;;;;;;;6.87;4.87;;;-0.50;99.20;;;;;;6227766;28;20955;-65
2021/12/07 04:16:08;;;;;;;9.33;5.00;;;-0.50;99.50;;;;;;6227269;28;20472;-66
2021/12/07 04:19:12;;;;;;;8.10;6.27;;;-0.60;99.60;;;;;;6226973;28;20808;-66
2021/12/07 04:22:15;;;;;;;6.73;5.97;;;-0.60;99.70;;;;;;6227338;28;20486;-66
2021/12/07 04:25:19;;;;;;;8.37;6.23;;;-0.70;99.90;;;;;;6227435;28;20475;-66
2021/12/07 04:28:23;;;;;;;10.60;8.83;;;-0.60;99.90;;;;;;6227181;28;20796;-65
2021/12/07 04:31:27;;;;;;;14.63;9.13;;;-0.70;99.90;;;;;;6226727;28;20546;-65
2021/12/07 04:34:30;;;;;;;8.70;7.90;;;-0.70;99.90;;;;;;6226831;28;20487;-65
2021/12/07 04:37:33;;;;;;;11.23;7.90;;;-0.70;99.90;;;;;;6226794;28;20488;-66
2021/12/07 04:40:37;;;;;;;8.63;7.00;;;-0.70;99.90;;;;;;6218155;28;20949;-65
2021/12/07 04:43:42;;;;;;;11.43;6.67;;;-0.80;99.90;;;;;;6227220;28;20480;-65
2021/12/07 04:46:52;;;;;;;10.80;7.60;;;-0.80;99.90;;;;;;6226291;28;20483;-63
2021/12/07 04:50:20;;;;;;;10.63;7.57;;;-0.80;99.90;;;;;;6226720;28;20547;-64
2021/12/07 05:00:07;;;;;;;14.10;9.47;;;-1.10;99.90;;;;;;6226661;28;20889;-64
2021/12/07 05:03:13;;;;;;;17.17;13.83;;;-1.20;99.90;;;;;;6226817;28;20471;-64
2021/12/07 05:06:18;;;;;;;12.70;9.57;;;-1.10;99.90;;;;;;6226470;28;20804;-63
2021/12/07 05:09:38;;;;;;;11.30;8.70;;;-1.00;99.90;;;;;;6226210;28;20480;-63
2021/12/07 05:12:56;;;;;;;8.47;6.70;;;-1.00;99.90;;;;;;6217028;28;20804;-63
2021/12/07 05:16:25;;;;;;;11.37;7.43;;;-0.90;99.90;;;;;;6225908;28;20491;-63
2021/12/07 05:39:46;;;;;;;9.00;7.30;;;-0.80;99.90;;;;;;6225657;28;20483;-63
2021/12/07 05:42:51;;;;;;;11.40;7.60;;;-0.80;99.90;;;;;;6221682;28;20479;-63
2021/12/07 05:45:55;;;;;;;7.63;6.93;;;-0.80;99.90;;;;;;6225856;28;20483;-64
2021/12/07 05:48:59;;;;;;;8.80;6.80;;;-0.70;99.90;;;;;;6225893;28;20483;-64
2021/12/07 05:52:03;;;;;;;9.27;8.50;;;-0.70;99.90;;;;;;6225941;28;20475;-65
2021/12/07 05:55:08;;;;;;;8.27;7.47;;;-0.70;99.90;;;;;;6226012;28;20819;-65
2021/12/07 05:58:12;;;;;;;9.43;8.47;;;-0.80;99.90;;;;;;6225503;28;20813;-65
2021/12/07 06:01:15;;;;;;;6.63;5.97;;;-0.70;99.90;;;;;;6225001;28;20971;-65
2021/12/07 06:04:20;;;;;;;7.00;6.40;;;-0.70;99.90;;;;;;6225191;28;21233;-64
2021/12/07 06:07:23;;;;;;;6.50;5.60;;;-0.80;99.90;;;;;;6226226;28;20482;-64
2021/12/07 06:10:27;;;;;;;7.13;6.43;;;-0.90;99.90;;;;;;6225764;28;20820;-64
2021/12/07 06:13:30;;;;;;;8.77;4.97;;;-0.90;99.90;;;;;;6225507;28;20503;-65
2021/12/07 06:16:34;;;;;;;5.07;4.57;;;-0.90;99.90;;;;;;6224917;28;20471;-65
2021/12/07 06:19:40;;;;;;;5.53;4.80;;;-0.90;99.90;;;;;;6225730;28;20480;-65
2021/12/07 06:22:43;;;;;;;6.43;5.77;;;-0.90;99.90;;;;;;6225069;28;20480;-65
2021/12/07 06:25:49;;;;;;;8.70;6.23;;;-0.90;99.80;;;;;;6225172;28;20490;-65
2021/12/07 06:28:52;;;;;;;6.17;5.57;;;-0.90;99.70;;;;;;6225015;28;20472;-65
2021/12/07 06:31:55;;;;;;;7.10;6.37;;;-1.00;99.70;;;;;;6225229;28;20980;-65
2021/12/07 06:34:59;;;;;;;7.47;6.77;;;-0.90;99.80;;;;;;6228807;28;20486;-65
2021/12/07 06:38:03;;;;;;;6.70;5.90;;;-0.90;99.90;;;;;;6229983;28;20475;-65
2021/12/07 06:41:06;;;;;;;8.27;6.53;;;-0.90;99.90;;;;;;6230200;28;20774;-65
2021/12/07 06:44:10;;;;;;;7.70;6.57;;;-0.90;99.90;;;;;;6229462;28;20475;-65
2021/12/07 06:47:13;;;;;;;7.60;6.80;;;-0.90;99.90;;;;;;6229560;28;20479;-64
2021/12/07 06:50:17;;;;;;;7.97;7.33;;;-0.90;99.90;;;;;;6229043;28;20964;-64
2021/12/07 06:53:20;;;;;;;10.50;8.70;;;-0.90;99.90;;;;;;6228507;28;20456;-64
2021/12/07 06:56:24;;;;;;;10.30;8.37;;;-0.90;99.90;;;;;;6228053;28;20478;-64
2021/12/07 06:59:27;;;;;;;10.70;7.30;;;-0.90;99.90;;;;;;6227741;28;20483;-65
2021/12/07 07:02:30;;;;;;;8.27;7.37;;;-0.90;99.90;;;;;;6227578;28;20456;-64
2021/12/07 07:05:35;;;;;;;14.80;9.90;;;-0.80;99.90;;;;;;6227987;28;21040;-64
2021/12/07 07:08:39;;;;;;;10.83;7.87;;;-0.70;99.90;;;;;;6229363;28;20924;-64
2021/12/07 07:11:42;;;;;;;7.60;5.63;;;-0.70;99.90;;;;;;6229570;28;20475;-65
2021/12/07 07:14:47;;;;;;;11.33;7.27;;;-0.80;99.70;;;;;;6229837;28;20482;-64
2021/12/07 07:17:50;;;;;;;5.93;5.30;;;-0.70;99.90;;;;;;6229587;28;20482;-65
2021/12/07 07:20:55;;;;;;;49.13;27.87;;;-0.70;99.70;;;;;;6228835;28;20479;-65
2021/12/07 07:23:59;;;;;;;12.50;9.53;;;-0.70;99.50;;;;;;6229008;28;20812;-64
2021/12/07 07:27:02;;;;;;;12.20;7.80;;;-0.60;99.60;;;;;;6228786;28;20475;-66
2021/12/07 07:30:07;;;;;;;7.47;6.77;;;-0.60;99.50;;;;;;6228482;28;20475;-64
2021/12/07 07:33:10;;;;;;;7.60;6.80;;;-0.50;99.40;;;;;;6228169;28;20972;-65
2021/12/07 07:36:15;;;;;;;8.90;6.97;;;-0.50;99.20;;;;;;6228206;28;20483;-65
2021/12/07 07:39:18;;;;;;;7.60;6.30;;;-0.40;99.20;;;;;;6228319;28;20547;-65
2021/12/07 07:42:22;;;;;;;10.83;7.00;;;-0.40;99.10;;;;;;6227975;28;20802;-65
2021/12/07 07:45:25;;;;;;;11.07;9.30;;;-0.40;99.20;;;;;;6227933;28;20793;-65
2021/12/07 07:48:28;;;;;;;7.70;6.60;;;-0.30;99.10;;;;;;6227843;28;20464;-65
2021/12/07 07:51:34;;;;;;;7.77;6.77;;;-0.30;99.20;;;;;;6219580;28;21029;-65
2021/12/07 07:54:37;;;;;;;9.80;6.30;;;-0.30;99.60;;;;;;6227845;28;20460;-65
2021/12/07 07:57:41;;;;;;;9.73;7.90;;;-0.20;99.70;;;;;;6227346;28;20815;-65
2021/12/07 08:00:44;;;;;;;7.97;6.77;;;-0.10;99.60;;;;;;6227446;28;20495;-65
2021/12/07 08:03:47;;;;;;;9.07;5.77;;;-0.10;99.40;;;;;;6228039;28;20529;-65
2021/12/07 08:06:52;;;;;;;8.23;6.23;;;0.00;99.40;;;;;;6227574;28;20472;-65
2021/12/07 08:09:55;;;;;;;9.80;6.90;;;0.10;99.20;;;;;;6226402;28;20972;-65
2021/12/07 08:13:00;;;;;;;9.63;8.60;;;0.20;99.20;;;;;;6227095;28;20967;-65
2021/12/07 08:16:04;;;;;;;10.37;7.83;;;0.20;99.10;;;;;;6227291;28;20479;-65
2021/12/07 08:19:07;;;;;;;8.30;7.50;;;0.30;99.20;;;;;;6226977;28;20808;-64
2021/12/07 08:22:11;;;;;;;9.13;7.00;;;0.30;99.10;;;;;;6216587;28;20483;-65
2021/12/07 08:25:15;;;;;;;6.67;5.63;;;0.40;99.20;;;;;;6208720;28;20485;-66
2021/12/07 08:28:19;;;;;;;8.27;7.47;;;0.50;99.00;;;;;;6217866;28;20472;-68
2021/12/07 08:31:23;;;;;;;8.23;5.70;;;0.60;99.00;;;;;;6204246;28;20509;-67
2021/12/07 08:34:26;;;;;;;9.50;7.03;;;0.70;98.90;;;;;;6215406;28;20479;-67
2021/12/07 08:37:31;;;;;;;12.47;7.00;;;0.70;98.80;;;;;;6229528;28;20538;-65
2021/12/07 08:40:39;;;;;;;9.03;7.00;;;0.80;98.60;;;;;;6228419;28;20480;-65
2021/12/07 08:43:42;;;;;;;15.90;9.33;;;0.90;98.50;;;;;;6228094;28;20614;-65
2021/12/07 08:46:46;;;;;;;13.70;8.27;;;0.90;98.40;;;;;;6221954;28;20484;-65
2021/12/07 08:49:49;;;;;;;11.47;8.57;;;0.90;98.40;;;;;;6211036;28;20483;-65
2021/12/07 08:53:02;;;;;;;9.80;8.50;;;1.00;98.30;;;;;;6228719;28;20964;-65
2021/12/07 08:59:41;;;;;;;11.27;8.10;;;1.20;98.20;;;;;;6203953;28;20472;-66
2021/12/07 09:02:44;;;;;;;11.97;8.70;;;1.30;98.20;;;;;;6221428;28;20512;-66
2021/12/07 09:05:48;;;;;;;9.50;7.73;;;1.40;98.10;;;;;;6201376;28;20476;-66
2021/12/07 09:08:52;;;;;;;14.83;8.30;;;1.40;97.90;;;;;;6201587;28;20491;-66
2021/12/07 09:11:56;;;;;;;10.53;8.83;;;1.50;97.70;;;;;;6201570;28;20481;-65
2021/12/07 09:15:06;;;;;;;8.73;7.30;;;1.60;97.40;;;;;;6201748;28;20488;-65
2021/12/07 09:18:10;;;;;;;14.60;7.97;;;1.70;97.10;;;;;;6201423;28;20949;-66
2021/12/07 09:21:13;;;;;;;10.03;7.87;;;1.80;97.00;;;;;;6208834;28;20476;-65
2021/12/07 09:24:19;;;;;;;9.40;6.27;;;1.80;96.70;;;;;;6201813;28;20469;-66
2021/12/07 09:27:22;;;;;;;13.90;7.10;;;1.90;96.20;;;;;;6201548;28;20484;-66
2021/12/07 09:30:26;;;;;;;9.40;6.80;;;1.90;96.10;;;;;;6201210;28;20483;-67
2021/12/07 09:33:30;;;;;;;10.50;6.53;;;2.00;95.80;;;;;;6201179;28;20480;-68
2021/12/07 09:36:35;;;;;;;10.40;5.97;;;2.10;95.80;;;;;;6200772;28;20480;-66
2021/12/07 09:39:39;;;;;;;16.97;6.10;;;2.20;95.70;;;;;;6200972;28;20476;-67
2021/12/07 09:42:43;;;;;;;7.30;5.33;;;2.30;95.60;;;;;;6201328;28;20484;-68
2021/12/07 09:45:47;;;;;;;11.80;5.73;;;2.30;94.90;;;;;;6202554;28;20484;-67
2021/12/07 09:48:50;;;;;;;10.10;6.23;;;2.40;94.50;;;;;;6202271;28;20468;-66
2021/12/07 09:51:54;;;;;;;7.53;6.60;;;2.40;94.50;;;;;;6218157;28;20474;-65
2021/12/07 09:54:58;;;;;;;16.60;7.10;;;2.50;94.70;;;;;;6225802;28;20815;-66
2021/12/07 09:58:02;;;;;;;11.20;8.30;;;2.60;94.80;;;;;;6226196;28;20606;-67
2021/12/07 10:01:05;;;;;;;9.60;6.80;;;2.80;94.30;;;;;;6225268;28;20467;-65
2021/12/07 10:04:09;;;;;;;95.60;18.17;;;3.00;94.00;;;;;;6225299;28;20547;-66
2021/12/07 10:07:13;;;;;;;86.23;18.80;;;3.10;93.80;;;;;;6224937;28;20482;-65
2021/12/07 10:10:21;;;;;;;506.80;76.33;;;3.30;93.90;;;;;;6229467;28;20813;-65
2021/12/07 10:13:27;;;;;;;201.43;36.63;;;3.40;93.70;;;;;;6230800;28;20931;-65
2021/12/07 10:16:31;;;;;;;12.60;7.43;;;3.60;93.50;;;;;;6230224;28;20482;-65
2021/12/07 10:19:41;;;;;;;13.13;7.67;;;3.80;92.90;;;;;;6229900;28;20503;-67
2021/12/07 10:22:46;;;;;;;36.50;10.60;;;3.90;92.10;;;;;;6227941;28;20826;-65
2021/12/07 10:25:55;;;;;;;28.00;11.83;;;3.90;91.80;;;;;;6229772;28;20476;-67
2021/12/07 10:29:00;;;;;;;27.80;13.37;;;4.10;91.80;;;;;;6228909;28;20476;-66
2021/12/07 10:32:07;;;;;;;14.60;8.83;;;4.20;91.90;;;;;;6229883;28;20479;-66
2021/12/07 10:35:28;;;;;;;12.77;8.10;;;4.40;91.80;;;;;;6208053;28;20469;-67
2021/12/07 10:38:32;;;;;;;12.83;8.73;;;4.80;90.90;;;;;;6229885;28;20455;-67
2021/12/07 10:41:38;;;;;;;11.30;8.50;;;5.00;90.50;;;;;;6229334;28;20491;-67
2021/12/07 10:44:43;;;;;;;14.27;8.53;;;5.20;90.10;;;;;;6229905;28;20460;-67
2021/12/07 10:47:46;;;;;;;11.17;8.73;;;5.20;89.50;;;;;;6228049;28;20472;-69
2021/12/07 10:50:49;;;;;;;16.37;9.03;;;5.30;89.00;;;;;;6229362;28;20467;-69
2021/12/07 10:53:53;;;;;;;13.77;8.70;;;5.30;90.60;;;;;;6228249;28;20821;-66
2021/12/07 10:57:00;;;;;;;14.30;11.90;;;5.40;90.00;;;;;;6224788;28;20484;-68
2021/12/07 11:00:12;;;;;;;45.83;26.53;;;5.50;88.30;;;;;;6228850;28;20480;-69
2021/12/07 11:03:19;;;;;;;99.23;54.57;;;5.50;89.80;;;;;;6195879;28;20477;-69
2021/12/07 11:06:22;;;;;;;28.03;18.63;;;5.60;88.20;;;;;;6221010;28;20553;-69
2021/12/07 11:09:26;;;;;;;16.40;13.70;;;6.60;89.10;;;;;;6229226;28;20480;-69
2021/12/07 11:12:37;;;;;;;11.07;9.53;;;10.10;80.60;;;;;;6228655;28;20468;-66
2021/12/07 11:15:49;;;;;;;14.27;10.23;;;14.40;60.10;;;;;;6228309;28;20472;-68
2021/12/07 11:18:54;;;;;;;16.60;10.63;;;14.10;49.20;;;;;;6227787;28;20630;-68
2021/12/07 11:21:58;;;;;;;17.20;11.20;;;13.00;49.50;;;;;;6228457;28;20827;-67
2021/12/07 11:25:03;;;;;;;16.00;9.20;;;12.00;52.20;;;;;;6226981;28;20498;-68
2021/12/07 11:31:30;;;;;;;14.83;9.93;;;17.10;47.10;;;;;;6228217;28;20468;-69
2021/12/07 11:34:40;;;;;;;10.30;9.23;;;20.50;39.30;;;;;;6219326;28;20472;-68
2021/12/07 11:37:44;;;;;;;14.50;11.43;;;22.90;34.40;;;;;;6227387;28;20964;-68
2021/12/07 11:40:47;;;;;;;13.07;11.47;;;24.20;29.70;;;;;;6229269;28;20279;-67
2021/12/07 11:43:55;;;;;;;14.33;11.60;;;25.60;28.70;;;;;;6228312;28;20255;-67
2021/12/07 11:47:00;;;;;;;16.43;11.87;;;26.60;27.00;;;;;;6227598;28;20712;-68
2021/12/07 11:50:14;;;;;;;14.23;11.50;;;26.30;25.90;;;;;;6227876;28;20283;-67
2021/12/07 11:53:21;;;;;;;12.43;10.30;;;24.10;26.80;;;;;;6226867;28;20245;-67
2021/12/07 11:56:24;;;;;;;13.60;11.10;;;21.70;28.10;;;;;;6251167;28;20540;-67
2021/12/07 11:59:29;;;;;;;12.63;10.90;;;19.70;30.80;;;;;;6252736;28;20212;-66
2021/12/07 12:02:32;;;;;;;11.93;10.60;;;20.00;31.10;;;;;;6251332;28;20205;-69
2021/12/07 12:05:37;;;;;;;13.73;9.47;;;20.80;30.30;;;;;;6246444;28;20220;-68
2021/12/07 12:08:41;;;;;;;11.10;10.03;;;22.20;29.00;;;;;;6250326;28;20779;-68
2021/12/07 12:11:52;;;;;;;10.03;9.00;;;21.70;28.30;;;;;;6248453;28;20229;-69
2021/12/07 12:15:15;;;;;;;11.17;8.93;;;19.80;29.30;;;;;;6227181;28;20291;-69
2021/12/07 12:18:31;;;;;;;10.50;9.40;;;18.80;30.90;;;;;;6228276;28;20536;-69
2021/12/07 12:21:41;;;;;;;10.00;8.47;;;18.90;31.20;;;;;;6229020;28;20240;-69
2021/12/07 12:24:49;;;;;;;12.13;8.17;;;19.70;30.60;;;;;;6227695;28;20476;-69
2021/12/07 12:27:55;;;;;;;11.30;8.37;;;20.60;29.50;;;;;;6226888;28;20666;-69
2021/12/07 12:30:59;;;;;;;9.70;8.70;;;21.70;28.90;;;;;;6225741;28;20669;-69
2021/12/07 12:34:03;;;;;;;11.17;9.83;;;23.50;27.90;;;;;;6227067;28;20225;-70
2021/12/07 12:37:09;;;;;;;12.33;8.70;;;24.30;26.80;;;;;;6226441;28;20565;-71
2021/12/07 12:40:19;;;;;;;9.13;8.33;;;24.90;25.20;;;;;;6226612;28;20235;-68
2021/12/07 12:43:34;;;;;;;11.23;10.10;;;24.90;24.60;;;;;;6243348;28;20231;-69
2021/12/07 12:46:41;;;;;;;13.37;9.30;;;24.40;24.90;;;;;;6250210;28;20240;-68
2021/12/07 12:49:46;;;;;;;10.80;9.73;;;22.50;25.90;;;;;;6251163;28;20231;-70
2021/12/07 12:52:52;;;;;;;11.63;8.70;;;20.80;27.70;;;;;;6250647;28;20232;-70
2021/12/07 12:55:56;;;;;;;9.57;8.67;;;20.00;28.00;;;;;;6229807;28;20236;-69
2021/12/07 12:59:05;;;;;;;10.40;7.37;;;19.60;28.80;;;;;;6226188;28;20251;-71
2021/12/07 13:02:10;;;;;;;7.10;6.40;;;19.30;29.00;;;;;;6226977;28;20233;-71
2021/12/07 13:05:16;;;;;;;8.73;5.70;;;17.70;30.10;;;;;;6226466;28;20472;-71
2021/12/07 13:08:19;;;;;;;7.30;6.57;;;17.40;31.00;;;;;;6250354;28;20489;-71
2021/12/07 13:11:35;;;;;;;6.03;4.77;;;18.30;30.80;;;;;;6250843;28;20491;-71
2021/12/07 13:14:42;;;;;;;11.50;5.33;;;20.20;29.00;;;;;;6251825;28;20443;-71
2021/12/07 13:17:49;;;;;;;4.97;4.33;;;21.60;27.10;;;;;;6253165;28;20243;-71
2021/12/07 13:20:52;;;;;;;5.37;4.87;;;21.70;25.80;;;;;;6253297;28;20231;-71
2021/12/07 13:24:00;;;;;;;4.83;4.43;;;20.80;25.90;;;;;;6253404;28;20232;-71
2021/12/07 13:27:10;;;;;;;7.03;5.50;;;19.70;26.90;;;;;;6253074;28;20475;-71
2021/12/07 13:30:14;;;;;;;9.63;5.00;;;20.20;27.00;;;;;;6251661;28;20269;-71
2021/12/07 13:33:21;;;;;;;6.90;6.20;;;21.30;26.10;;;;;;6259253;28;20227;-72
2021/12/07 13:36:45;;;;;;;7.93;6.53;;;22.30;25.20;;;;;;6279675;28;20236;-70
2021/12/07 13:39:50;;;;;;;7.70;5.00;;;23.30;24.80;;;;;;6277750;28;20232;-71
2021/12/07 13:42:54;;;;;;;7.13;6.30;;;23.90;24.10;;;;;;6276891;28;20227;-72
2021/12/07 13:46:11;;;;;;;9.23;8.27;;;23.60;23.60;;;;;;6282377;28;20630;-72
2021/12/07 13:49:16;;;;;;;4.83;4.33;;;23.20;23.80;;;;;;6286545;28;20295;-68
2021/12/07 13:52:22;;;;;;;8.60;4.50;;;22.70;24.10;;;;;;6287923;28;20691;-68
2021/12/07 13:55:28;;;;;;;10.13;4.60;;;22.60;24.10;;;;;;6279225;28;20322;-69
2021/12/07 13:58:45;;;;;;;6.87;4.40;;;22.90;24.50;;;;;;6261762;28;20243;-67
2021/12/07 14:01:52;;;;;;;9.73;5.40;;;23.30;24.30;;;;;;6253827;28;20672;-71
2021/12/07 14:05:06;;;;;;;4.83;4.33;;;23.20;24.00;;;;;;6251796;28;20665;-69
2021/12/07 14:08:12;;;;;;;7.03;4.70;;;22.80;24.10;;;;;;6250237;28;20228;-68
2021/12/07 14:11:17;;;;;;;5.70;4.10;;;21.90;24.30;;;;;;6250189;28;20227;-68
2021/12/07 14:14:21;;;;;;;5.80;3.43;;;20.80;25.00;;;;;;6245121;28;20217;-70
2021/12/07 14:17:24;;;;;;;6.60;4.07;;;19.30;26.10;;;;;;6249521;28;20470;-67
2021/12/07 14:20:34;;;;;;;6.50;3.93;;;17.80;26.70;;;;;;6248359;28;20450;-68
2021/12/07 14:23:40;;;;;;;6.43;4.10;;;16.30;28.00;;;;;;6249346;28;20907;-67
2021/12/07 14:26:44;;;;;;;5.77;3.00;;;15.00;29.20;;;;;;6244813;28;20467;-68
2021/12/07 14:29:47;;;;;;;5.30;3.57;;;13.80;30.80;;;;;;6249531;28;20514;-69
2021/12/07 14:32:51;;;;;;;3.87;3.10;;;12.80;32.60;;;;;;6249533;28;20974;-69
2021/12/07 14:35:55;;;;;;;5.60;3.53;;;11.70;34.50;;;;;;6250270;28;20493;-67
2021/12/07 14:39:00;;;;;;;8.53;4.73;;;10.80;36.60;;;;;;6250286;28;20961;-67
2021/12/07 14:42:06;;;;;;;10.00;5.13;;;10.00;39.30;;;;;;6250438;28;20467;-68
2021/12/07 14:45:11;;;;;;;6.23;5.63;;;9.50;40.90;;;;;;6250819;28;20486;-67
2021/12/07 14:48:14;;;;;;;8.53;4.53;;;9.00;42.50;;;;;;6248922;28;20486;-66
2021/12/07 14:51:22;;;;;;;5.70;3.60;;;8.60;43.70;;;;;;6249430;28;20547;-67
2021/12/07 14:54:26;;;;;;;7.87;5.97;;;8.20;44.70;;;;;;6250723;28;20458;-67
2021/12/07 14:57:31;;;;;;;10.00;4.80;;;8.00;45.70;;;;;;6253655;28;20478;-67
2021/12/07 15:00:35;;;;;;;6.90;4.67;;;7.70;46.80;;;;;;6253516;28;20467;-66
2021/12/07 15:03:40;;;;;;;10.57;4.70;;;7.40;47.90;;;;;;6253090;28;20491;-66
2021/12/07 15:06:49;;;;;;;7.60;5.00;;;7.20;48.90;;;;;;6238421;28;20981;-66
2021/12/07 15:09:52;;;;;;;4.60;4.20;;;7.00;50.10;;;;;;6242419;28;20464;-66
2021/12/07 15:12:56;;;;;;;6.77;4.57;;;6.80;51.50;;;;;;6241647;28;20483;-67
2021/12/07 15:15:59;;;;;;;5.77;4.80;;;6.70;51.70;;;;;;6252762;28;20474;-66
2021/12/07 15:19:03;;;;;;;7.20;4.60;;;6.50;52.70;;;;;;6243099;28;20467;-66
2021/12/07 15:22:07;;;;;;;6.13;4.30;;;6.30;53.50;;;;;;6252538;28;20462;-70
2021/12/07 15:25:14;;;;;;;6.53;5.23;;;6.20;54.90;;;;;;6252888;28;20471;-66
2021/12/07 15:28:18;;;;;;;9.73;7.67;;;6.10;55.60;;;;;;6251663;28;20517;-66
2021/12/07 15:31:21;;;;;;;11.00;6.30;;;5.90;56.40;;;;;;6251451;28;20470;-67
2021/12/07 15:34:30;;;;;;;8.17;7.37;;;5.80;57.60;;;;;;6251467;28;20554;-66
2021/12/07 15:37:41;;;;;;;13.40;6.30;;;5.60;58.30;;;;;;6252607;28;20971;-66
2021/12/07 15:40:45;;;;;;;8.60;6.30;;;5.50;59.50;;;;;;6233170;28;20483;-67
2021/12/07 15:43:49;;;;;;;12.20;7.20;;;5.40;60.50;;;;;;6232297;28;20471;-72
2021/12/07 15:46:55;;;;;;;16.10;8.50;;;5.30;62.40;;;;;;6250074;28;20483;-71
2021/12/07 15:49:59;;;;;;;34.90;18.00;;;5.20;63.60;;;;;;6252432;28;20483;-70
2021/12/07 15:53:08;;;;;;;23.40;13.33;;;5.20;64.60;;;;;;6252345;28;20486;-70
2021/12/07 15:56:17;;;;;;;18.43;11.37;;;5.20;65.50;;;;;;6252983;28;20486;-71
2021/12/07 15:59:20;;;;;;;26.87;11.17;;;5.20;66.30;;;;;;6252679;28;20451;-70
2021/12/07 16:02:24;;;;;;;16.10;9.07;;;5.10;67.20;;;;;;6253251;28;20458;-71
2021/12/07 16:05:33;;;;;;;14.70;8.10;;;5.10;68.30;;;;;;6252674;28;20500;-70
2021/12/07 16:08:38;;;;;;;13.30;7.90;;;5.00;68.70;;;;;;6252297;28;20443;-70
2021/12/07 16:11:43;;;;;;;15.77;8.43;;;4.90;69.30;;;;;;6252743;28;20478;-70
2021/12/07 16:14:46;;;;;;;11.83;7.20;;;4.80;69.90;;;;;;6233806;28;20499;-69
2021/12/07 16:17:55;;;;;;;21.03;12.17;;;4.80;70.40;;;;;;6227607;28;20482;-69
2021/12/07 16:21:00;;;;;;;12.80;7.30;;;4.80;71.70;;;;;;6242332;28;20481;-71
2021/12/07 16:24:07;;;;;;;10.00;7.37;;;4.70;72.20;;;;;;6253476;28;20486;-70
2021/12/07 16:27:10;;;;;;;11.77;7.57;;;4.60;72.90;;;;;;6251686;28;20476;-71
2021/12/07 16:30:14;;;;;;;12.50;8.10;;;4.50;73.50;;;;;;6252455;28;20475;-71
2021/12/07 16:33:17;;;;;;;13.83;7.37;;;4.50;74.30;;;;;;6251871;28;20494;-71
2021/12/07 16:36:22;;;;;;;11.10;6.90;;;4.40;75.20;;;;;;6251843;28;20478;-69
2021/12/07 16:39:26;;;;;;;11.53;7.13;;;4.40;75.60;;;;;;6251543;28;20834;-70
2021/12/07 16:42:30;;;;;;;12.00;8.60;;;4.30;76.40;;;;;;6251816;28;20474;-66
2021/12/07 16:45:38;;;;;;;8.77;6.87;;;4.20;76.90;;;;;;6251047;28;20482;-67
2021/12/07 16:48:41;;;;;;;11.73;7.77;;;4.20;77.70;;;;;;6251433;28;20471;-65
2021/12/07 16:51:45;;;;;;;13.70;7.80;;;4.10;78.70;;;;;;6250944;28;20467;-65
2021/12/07 16:54:49;;;;;;;11.60;8.20;;;4.00;78.40;;;;;;6253333;28;20474;-70
2021/12/07 16:57:53;;;;;;;7.97;7.00;;;3.90;79.30;;;;;;6251868;28;20475;-68
2021/12/07 17:00:58;;;;;;;13.90;9.77;;;3.80;79.80;;;;;;6251437;28;20467;-66
2021/12/07 17:04:01;;;;;;;12.03;9.73;;;3.80;80.80;;;;;;6250983;28;20570;-68
2021/12/07 17:07:06;;;;;;;14.00;9.00;;;3.70;82.20;;;;;;6248357;28;20482;-68
2021/12/07 17:10:13;;;;;;;9.73;8.47;;;3.70;83.10;;;;;;6250677;28;20467;-67
2021/12/07 17:13:17;;;;;;;12.53;8.60;;;3.70;83.40;;;;;;6250357;28;20467;-67
2021/12/07 17:16:21;;;;;;;13.20;8.00;;;3.50;83.80;;;;;;6250386;28;20494;-65
2021/12/07 17:19:24;;;;;;;13.27;8.50;;;3.50;84.30;;;;;;6249964;28;20471;-65
2021/12/07 17:22:28;;;;;;;12.00;8.60;;;3.40;85.20;;;;;;6250201;28;20482;-65
2021/12/07 17:25:32;;;;;;;14.90;9.80;;;3.30;85.80;;;;;;6245846;28;20484;-65
2021/12/07 17:28:35;;;;;;;16.33;10.73;;;3.30;86.40;;;;;;6249666;28;20493;-66
2021/12/07 17:31:40;;;;;;;19.53;9.23;;;3.30;87.50;;;;;;6250047;28;20479;-65